createdAt,value
2023-09-13T00:00:27.124Z,4.45
2023-09-13T00:02:53.665Z,4.50
2023-09-13T00:05:20.511Z,4.72
2023-09-13T00:07:47.108Z,4.22
2023-09-13T00:10:13.764Z,4.47
2023-09-13T00:12:40.444Z,5.55
2023-09-13T00:15:07.589Z,4.10
2023-09-13T00:17:34.529Z,4.85
2023-09-13T00:20:01.008Z,4.18
2023-09-13T00:22:27.492Z,5.18
2023-09-13T00:24:53.950Z,3.70
2023-09-13T00:27:20.332Z,4.93
2023-09-13T00:29:46.727Z,4.13
2023-09-13T00:32:13.181Z,4.65
2023-09-13T00:34:39.693Z,4.43
2023-09-13T00:37:06.226Z,5.28
2023-09-13T00:39:33.536Z,3.95
2023-09-13T00:42:00.029Z,3.95
2023-09-13T00:44:26.454Z,4.25
2023-09-13T00:46:53.138Z,4.80
2023-09-13T00:49:20.016Z,3.95
2023-09-13T00:51:46.620Z,4.70
2023-09-13T00:54:14.142Z,4.45
2023-09-13T00:56:42.710Z,4.38
2023-09-13T00:59:10.693Z,4.10
2023-09-13T01:01:37.438Z,3.22
2023-09-13T01:04:04.605Z,3.92
2023-09-13T01:06:32.427Z,4.43
2023-09-13T01:08:59.033Z,3.97
2023-09-13T01:11:26.352Z,4.07
2023-09-13T01:13:52.741Z,4.35
2023-09-13T01:16:38.597Z,4.72
2023-09-13T01:19:26.685Z,4.38
2023-09-13T01:22:11.070Z,3.83
2023-09-13T01:24:50.143Z,3.88
2023-09-13T01:27:44.610Z,3.63
2023-09-13T01:30:13.185Z,4.13
2023-09-13T01:32:39.613Z,4.10
2023-09-13T01:35:06.817Z,6.13
2023-09-13T01:37:33.982Z,5.45
2023-09-13T01:40:01.524Z,4.35
2023-09-13T01:42:31.268Z,4.18
2023-09-13T01:44:58.520Z,3.67
2023-09-13T01:47:26.456Z,3.75
2023-09-13T01:49:53.355Z,4.00
2023-09-13T01:52:20.083Z,3.63
2023-09-13T01:54:46.627Z,3.42
2023-09-13T01:57:13.142Z,5.05
2023-09-13T01:59:39.631Z,3.55
2023-09-13T02:02:06.136Z,5.22
2023-09-13T02:04:34.597Z,3.95
2023-09-13T02:07:04.898Z,3.08
2023-09-13T02:09:32.762Z,3.80
2023-09-13T02:11:59.294Z,5.88
2023-09-13T02:14:25.834Z,3.72
2023-09-13T02:16:52.353Z,3.63
2023-09-13T02:19:18.966Z,4.07
2023-09-13T02:21:46.595Z,3.40
2023-09-13T02:24:13.445Z,4.03
2023-09-13T02:26:41.176Z,3.33
2023-09-13T02:29:07.624Z,4.07
2023-09-13T02:31:34.232Z,3.83
2023-09-13T02:34:00.831Z,4.15
2023-09-13T02:36:27.264Z,4.10
2023-09-13T02:38:54.487Z,3.80
2023-09-13T02:41:21.105Z,3.55
2023-09-13T02:43:47.930Z,4.28
2023-09-13T02:46:14.660Z,4.20
2023-09-13T02:48:41.266Z,3.03
2023-09-13T02:51:14.903Z,3.30
2023-09-13T02:53:41.955Z,3.78
2023-09-13T02:56:09.500Z,3.70
2023-09-13T02:58:36.272Z,3.00
2023-09-13T03:01:05.135Z,4.88
2023-09-13T03:03:33.773Z,2.90
2023-09-13T03:06:13.921Z,3.15
2023-09-13T03:08:40.444Z,5.18
2023-09-13T03:11:14.449Z,3.33
2023-09-13T03:13:44.604Z,5.13
2023-09-13T03:16:22.471Z,3.08
2023-09-13T03:18:51.782Z,5.10
2023-09-13T03:21:21.678Z,3.88
2023-09-13T03:23:49.998Z,3.47
2023-09-13T03:26:20.546Z,4.10
2023-09-13T03:28:52.242Z,3.65
2023-09-13T03:31:20.953Z,4.45
2023-09-13T03:33:49.772Z,3.78
2023-09-13T03:36:17.345Z,3.30
2023-09-13T03:38:45.239Z,4.25
2023-09-13T03:41:14.122Z,4.00
2023-09-13T03:43:41.030Z,6.53
2023-09-13T03:46:08.555Z,4.38
2023-09-13T03:48:36.274Z,4.40
2023-09-13T03:51:04.429Z,4.25
2023-09-13T03:53:31.563Z,5.40
2023-09-13T03:55:58.450Z,4.13
2023-09-13T03:58:24.935Z,4.57
2023-09-13T04:00:51.499Z,4.47
2023-09-13T04:03:18.378Z,5.40
2023-09-13T04:05:45.032Z,4.68
2023-09-13T04:08:11.735Z,4.72
2023-09-13T04:10:38.652Z,3.83
2023-09-13T04:13:05.978Z,4.50
2023-09-13T04:15:33.078Z,4.78
2023-09-13T04:17:59.532Z,5.07
2023-09-13T04:20:26.037Z,4.03
2023-09-13T04:22:52.579Z,4.80
2023-09-13T04:25:19.440Z,5.32
2023-09-13T04:27:47.238Z,4.22
2023-09-13T04:30:15.514Z,4.85
2023-09-13T04:32:42.409Z,5.82
2023-09-13T04:35:09.419Z,5.03
2023-09-13T04:37:38.032Z,5.10
2023-09-13T04:40:06.652Z,5.80
2023-09-13T04:42:43.994Z,4.63
2023-09-13T04:45:10.596Z,4.28
2023-09-13T04:47:38.076Z,4.32
2023-09-13T04:50:06.198Z,6.30
2023-09-13T04:52:33.650Z,5.72
2023-09-13T04:55:00.080Z,4.47
2023-09-13T04:57:26.603Z,4.55
2023-09-13T04:59:53.663Z,6.85
2023-09-13T05:02:20.227Z,4.50
2023-09-13T05:04:46.920Z,5.70
2023-09-13T05:07:13.534Z,4.97
2023-09-13T05:09:41.350Z,5.32
2023-09-13T05:12:08.302Z,6.50
2023-09-13T05:14:37.367Z,4.03
2023-09-13T05:17:05.238Z,5.15
2023-09-13T05:19:32.416Z,5.82
2023-09-13T05:21:59.017Z,5.78
2023-09-13T05:24:25.546Z,5.15
2023-09-13T05:26:52.092Z,5.25
2023-09-13T05:29:18.552Z,5.60
2023-09-13T05:31:45.137Z,5.43
2023-09-13T05:34:11.706Z,6.57
2023-09-13T05:36:38.269Z,6.75
2023-09-13T05:39:04.872Z,4.57
2023-09-13T05:41:33.406Z,7.50
2023-09-13T05:43:59.835Z,6.07
2023-09-13T05:46:27.067Z,4.40
2023-09-13T05:48:53.800Z,5.90
2023-09-13T05:51:20.565Z,5.95
2023-09-13T05:53:47.316Z,5.13
2023-09-13T05:56:13.718Z,5.43
2023-09-13T05:58:44.541Z,5.65
2023-09-13T06:01:14.018Z,6.32
2023-09-13T06:03:40.790Z,5.72
2023-09-13T06:06:07.346Z,4.15
2023-09-13T06:08:34.955Z,5.03
2023-09-13T06:11:01.395Z,4.93
2023-09-13T06:13:28.057Z,3.95
2023-09-13T06:15:54.644Z,3.05
2023-09-13T06:18:21.240Z,3.35
2023-09-13T06:20:47.998Z,2.95
2023-09-13T06:23:40.282Z,3.58
2023-09-13T06:26:07.626Z,3.10
2023-09-13T06:28:35.027Z,3.05
2023-09-13T06:31:04.520Z,2.63
2023-09-13T06:36:02.104Z,2.17
2023-09-13T06:38:31.440Z,2.30
2023-09-13T06:40:58.988Z,3.15
2023-09-13T06:46:04.628Z,2.85
2023-09-13T06:48:33.309Z,2.60
2023-09-13T06:53:34.606Z,2.30
2023-09-13T06:56:05.165Z,2.42
2023-09-13T07:03:34.875Z,2.72
2023-09-13T07:06:02.535Z,1.80
2023-09-13T07:08:29.053Z,2.00
2023-09-13T07:10:55.496Z,1.95
2023-09-13T07:13:22.098Z,2.22
2023-09-13T07:15:49.295Z,2.00
2023-09-13T07:18:16.206Z,3.05
2023-09-13T07:20:42.848Z,2.33
2023-09-13T07:23:10.334Z,1.60
2023-09-13T07:25:37.030Z,3.08
2023-09-13T07:28:04.201Z,2.67
2023-09-13T07:30:30.765Z,2.33
2023-09-13T07:32:57.407Z,2.47
2023-09-13T07:35:24.664Z,1.80
2023-09-13T07:37:51.377Z,2.20
2023-09-13T07:40:18.146Z,2.17
2023-09-13T07:42:44.738Z,2.25
2023-09-13T07:45:11.466Z,1.67
2023-09-13T07:47:38.099Z,2.78
2023-09-13T07:50:04.944Z,2.67
2023-09-13T07:52:42.561Z,2.83
2023-09-13T07:55:17.938Z,2.65
2023-09-13T07:57:44.403Z,2.42
2023-09-13T08:00:11.565Z,2.25
2023-09-13T08:02:38.046Z,2.28
2023-09-13T08:05:05.276Z,4.07
2023-09-13T08:07:31.933Z,2.30
2023-09-13T08:09:58.359Z,2.65
2023-09-13T08:12:24.852Z,2.53
2023-09-13T08:14:51.711Z,3.47
2023-09-13T08:17:18.257Z,2.38
2023-09-13T08:19:44.716Z,2.38
2023-09-13T08:22:12.858Z,2.70
2023-09-13T08:24:41.938Z,1.83
2023-09-13T08:27:08.421Z,2.05
2023-09-13T08:29:35.827Z,3.28
2023-09-13T08:32:02.374Z,2.85
2023-09-13T08:34:28.797Z,3.85
2023-09-13T08:36:57.102Z,3.22
2023-09-13T08:39:23.906Z,3.10
2023-09-13T08:41:54.567Z,1.95
2023-09-13T08:44:22.196Z,3.50
2023-09-13T08:46:57.986Z,2.97
2023-09-13T08:49:25.798Z,2.17
2023-09-13T08:51:54.070Z,2.28
2023-09-13T08:54:22.227Z,2.33
2023-09-13T08:56:48.933Z,2.53
2023-09-13T08:59:18.613Z,2.53
2023-09-13T09:01:50.265Z,2.08
2023-09-13T09:04:18.009Z,1.95
2023-09-13T09:06:44.854Z,2.67
2023-09-13T09:09:14.185Z,1.70
2023-09-13T09:11:48.337Z,1.85
2023-09-13T09:14:19.522Z,1.52
2023-09-13T09:16:48.951Z,1.90
2023-09-13T09:19:15.839Z,2.47
2023-09-13T09:21:42.578Z,3.08
2023-09-13T09:24:09.274Z,2.50
2023-09-13T09:26:35.715Z,2.15
2023-09-13T09:29:19.565Z,2.10
2023-09-13T09:31:46.789Z,2.22
2023-09-13T09:34:15.693Z,2.58
2023-09-13T09:36:43.881Z,3.08
2023-09-13T09:39:11.326Z,2.40
2023-09-13T09:41:39.508Z,1.92
2023-09-13T09:44:06.862Z,2.10
2023-09-13T09:46:34.829Z,1.80
2023-09-13T09:49:02.155Z,2.85
2023-09-13T09:51:29.917Z,2.35
2023-09-13T09:53:57.334Z,1.65
2023-09-13T09:56:24.070Z,2.15
2023-09-13T09:58:52.277Z,2.03
2023-09-13T10:01:19.816Z,1.30
2023-09-13T10:03:46.554Z,2.42
2023-09-13T10:06:15.116Z,3.25
2023-09-13T10:08:48.988Z,2.63
2023-09-13T10:11:18.756Z,2.03
2023-09-13T10:13:48.455Z,2.33
2023-09-13T10:16:17.504Z,2.65
2023-09-13T10:18:46.653Z,1.80
2023-09-13T10:21:15.226Z,1.95
2023-09-13T10:23:44.854Z,1.80
2023-09-13T10:26:14.627Z,3.00
2023-09-13T10:28:45.526Z,1.67
2023-09-13T10:31:20.893Z,2.08
2023-09-13T10:33:53.185Z,2.85
2023-09-13T10:36:39.777Z,2.47
2023-09-13T10:39:18.795Z,3.03
2023-09-13T10:42:02.847Z,2.03
2023-09-13T10:44:29.445Z,2.83
2023-09-13T10:46:57.189Z,2.65
2023-09-13T10:49:25.372Z,2.63
2023-09-13T10:51:54.659Z,2.17
2023-09-13T10:54:22.586Z,2.45
2023-09-13T10:56:49.447Z,2.83
2023-09-13T10:59:19.318Z,2.03
2023-09-13T11:01:49.009Z,2.05
2023-09-13T11:04:25.651Z,2.53
2023-09-13T11:06:54.654Z,2.25
2023-09-13T11:09:31.222Z,2.33
2023-09-13T11:11:59.235Z,2.58
2023-09-13T11:14:31.132Z,1.98
2023-09-13T11:17:10.124Z,2.20
2023-09-13T11:19:36.710Z,2.63
2023-09-13T11:22:04.939Z,1.95
2023-09-13T11:24:49.735Z,2.65
2023-09-13T11:27:19.705Z,2.38
2023-09-13T11:29:47.360Z,2.38
2023-09-13T11:32:18.607Z,2.30
2023-09-13T11:34:46.424Z,2.05
2023-09-13T11:37:14.344Z,2.40
2023-09-13T11:39:41.430Z,2.50
2023-09-13T11:42:22.807Z,2.65
2023-09-13T11:45:03.207Z,2.30
2023-09-13T11:47:38.019Z,3.10
2023-09-13T11:50:13.073Z,2.85
2023-09-13T11:53:18.202Z,2.55
2023-09-13T11:56:03.867Z,1.98
2023-09-13T11:58:48.363Z,1.92
2023-09-13T12:01:25.603Z,2.00
2023-09-13T12:04:24.017Z,1.90
2023-09-13T12:06:50.137Z,2.03
2023-09-13T12:09:25.208Z,2.10
2023-09-13T12:12:00.697Z,1.95
2023-09-13T12:14:40.609Z,2.40
2023-09-13T12:17:15.304Z,1.98
2023-09-13T12:19:41.871Z,1.92
2023-09-13T12:22:13.776Z,2.38
2023-09-13T12:24:51.124Z,1.75
2023-09-13T12:27:18.209Z,2.75
2023-09-13T12:29:45.780Z,2.63
2023-09-13T12:32:12.856Z,1.70
2023-09-13T12:34:39.408Z,1.98
2023-09-13T12:37:07.419Z,1.70
2023-09-13T12:39:34.826Z,2.08
2023-09-13T12:42:06.838Z,1.63
2023-09-13T12:44:36.674Z,1.67
2023-09-13T12:47:04.789Z,2.40
2023-09-13T12:49:31.355Z,2.40
2023-09-13T12:51:57.846Z,1.40
2023-09-13T12:54:24.673Z,1.65
2023-09-13T12:56:51.189Z,2.35
2023-09-13T12:59:17.633Z,1.80
2023-09-13T13:01:44.390Z,1.95
2023-09-13T13:04:12.462Z,2.17
2023-09-13T13:07:05.110Z,2.22
2023-09-13T13:09:31.623Z,2.17
2023-09-13T13:11:58.498Z,2.40
2023-09-13T13:14:28.115Z,1.98
2023-09-13T13:17:00.262Z,2.17
2023-09-13T13:22:12.661Z,2.17
2023-09-13T13:24:40.439Z,1.67
2023-09-13T13:27:07.514Z,3.22
2023-09-13T13:29:37.850Z,3.75
2023-09-13T13:32:06.025Z,2.60
2023-09-13T13:34:33.084Z,4.25
2023-09-13T13:36:59.623Z,3.70
2023-09-13T13:39:26.120Z,4.15
2023-09-13T13:41:52.722Z,4.85
2023-09-13T13:44:19.412Z,4.22
2023-09-13T13:46:46.106Z,3.00
2023-09-13T13:49:17.452Z,4.05
2023-09-13T13:51:46.440Z,3.50
2023-09-13T13:54:12.971Z,3.45
2023-09-13T13:56:41.445Z,3.63
2023-09-13T13:59:10.243Z,4.53
2023-09-13T14:01:36.881Z,4.90
2023-09-13T14:04:05.059Z,5.35
2023-09-13T14:06:31.678Z,4.28
2023-09-13T14:08:58.150Z,3.58
2023-09-13T14:11:24.928Z,3.08
2023-09-13T14:13:51.634Z,6.05
2023-09-13T14:16:18.202Z,2.97
2023-09-13T14:18:44.800Z,4.03
2023-09-13T14:21:11.423Z,4.18
2023-09-13T14:23:37.894Z,2.78
2023-09-13T14:26:05.007Z,4.30
2023-09-13T14:28:34.578Z,3.88
2023-09-13T14:31:01.065Z,3.55
2023-09-13T14:33:31.383Z,3.70
2023-09-13T14:35:58.108Z,3.53
2023-09-13T14:38:24.706Z,3.70
2023-09-13T14:40:51.448Z,5.13
2023-09-13T14:43:18.135Z,3.85
2023-09-13T14:45:44.603Z,4.90
2023-09-13T14:48:11.346Z,3.63
2023-09-13T14:50:37.926Z,3.78
2023-09-13T14:53:05.732Z,4.32
2023-09-13T14:55:33.188Z,5.03
2023-09-13T14:57:59.593Z,4.65
2023-09-13T15:00:26.058Z,3.50
2023-09-13T15:02:52.674Z,5.15
2023-09-13T15:05:19.287Z,4.03
2023-09-13T15:07:45.803Z,4.28
2023-09-13T15:10:12.895Z,3.22
2023-09-13T15:12:39.718Z,5.20
2023-09-13T15:15:06.647Z,4.22
2023-09-13T15:17:33.946Z,4.72
2023-09-13T15:20:00.592Z,3.72
2023-09-13T15:22:28.983Z,4.32
2023-09-13T15:24:56.066Z,5.10
2023-09-13T15:27:25.580Z,4.00
2023-09-13T15:29:52.182Z,7.75
2023-09-13T15:32:18.645Z,4.65
2023-09-13T15:34:45.052Z,5.15
2023-09-13T15:37:11.570Z,4.97
2023-09-13T15:39:40.140Z,4.68
2023-09-13T15:42:06.718Z,4.25
2023-09-13T15:44:33.184Z,4.80
2023-09-13T15:46:59.669Z,4.78
2023-09-13T15:49:26.708Z,4.90
2023-09-13T15:51:53.354Z,4.68
2023-09-13T15:54:20.254Z,5.13
2023-09-13T15:56:48.012Z,6.88
2023-09-13T15:59:14.540Z,5.40
2023-09-13T16:01:41.114Z,6.22
2023-09-13T16:04:08.665Z,5.25
2023-09-13T16:06:37.292Z,5.72
2023-09-13T16:09:05.047Z,4.53
2023-09-13T16:11:33.058Z,5.20
2023-09-13T16:13:59.698Z,4.43
2023-09-13T16:16:28.934Z,3.45
2023-09-13T16:18:55.709Z,5.75
2023-09-13T16:21:22.582Z,4.22
2023-09-13T16:23:48.998Z,6.68
2023-09-13T16:26:15.461Z,4.88
2023-09-13T16:28:42.091Z,4.22
2023-09-13T16:31:09.590Z,4.65
2023-09-13T16:33:37.181Z,5.53
2023-09-13T16:36:04.665Z,6.10
2023-09-13T16:38:31.157Z,4.45
2023-09-13T16:40:59.308Z,3.47
2023-09-13T16:43:26.048Z,5.00
2023-09-13T16:45:52.568Z,5.03
2023-09-13T16:48:31.777Z,5.70
2023-09-13T16:50:58.975Z,5.20
2023-09-13T16:53:25.466Z,6.28
2023-09-13T16:55:52.798Z,3.30
2023-09-13T16:58:19.225Z,2.95
2023-09-13T17:00:45.931Z,5.32
2023-09-13T17:03:12.639Z,3.50
2023-09-13T17:05:39.162Z,5.55
2023-09-13T17:08:06.493Z,3.45
2023-09-13T17:10:33.030Z,6.85
2023-09-13T17:12:59.596Z,6.78
2023-09-13T17:15:26.207Z,6.45
2023-09-13T17:17:52.737Z,3.53
2023-09-13T17:20:19.228Z,4.75
2023-09-13T17:22:45.825Z,3.90
2023-09-13T17:25:12.361Z,3.97
2023-09-13T17:27:38.839Z,3.05
2023-09-13T17:30:06.348Z,4.30
2023-09-13T17:32:33.013Z,7.32
2023-09-13T17:34:59.572Z,5.15
2023-09-13T17:37:29.916Z,2.90
2023-09-13T17:39:57.396Z,3.47
2023-09-13T17:42:24.317Z,6.57
2023-09-13T17:44:51.928Z,4.15
2023-09-13T17:47:22.215Z,4.40
2023-09-13T17:49:48.726Z,3.95
2023-09-13T17:52:15.177Z,3.10
2023-09-13T17:54:41.717Z,2.42
2023-09-13T17:57:08.497Z,4.97
2023-09-13T17:59:35.822Z,2.22
2023-09-13T18:02:02.772Z,2.75
2023-09-13T18:04:29.462Z,2.42
2023-09-13T18:06:56.020Z,4.00
2023-09-13T18:09:22.678Z,3.92
2023-09-13T18:11:52.706Z,3.85
2023-09-13T18:14:19.664Z,4.35
2023-09-13T18:16:46.325Z,4.95
2023-09-13T18:19:12.994Z,5.53
2023-09-13T18:21:39.647Z,3.63
2023-09-13T18:24:09.153Z,2.60
2023-09-13T18:26:35.987Z,3.65
2023-09-13T18:29:02.463Z,3.80
2023-09-13T18:31:29.043Z,3.17
2023-09-13T18:33:55.552Z,3.20
2023-09-13T18:36:22.235Z,4.53
2023-09-13T18:38:50.530Z,4.95
2023-09-13T18:41:17.044Z,3.08
2023-09-13T18:43:43.515Z,3.33
2023-09-13T18:46:10.024Z,4.22
2023-09-13T18:48:36.599Z,8.02
2023-09-13T18:51:05.074Z,1.88
2023-09-13T18:53:31.614Z,3.78
2023-09-13T18:55:59.650Z,3.55
2023-09-13T18:58:29.323Z,3.40
2023-09-13T19:00:57.224Z,4.75
2023-09-13T19:03:24.916Z,3.13
2023-09-13T19:06:06.407Z,4.13
2023-09-13T19:08:32.846Z,4.65
2023-09-13T19:11:03.023Z,4.57
2023-09-13T19:13:30.697Z,3.45
2023-09-13T19:16:02.288Z,2.53
2023-09-13T19:18:33.891Z,3.35
2023-09-13T19:21:02.266Z,3.72
2023-09-13T19:23:31.322Z,3.22
2023-09-13T19:25:59.656Z,3.67
2023-09-13T19:28:27.954Z,2.25
2023-09-13T19:30:56.320Z,3.08
2023-09-13T19:33:26.473Z,3.33
2023-09-13T19:35:54.458Z,2.50
2023-09-13T19:38:29.172Z,3.25
2023-09-13T19:40:56.603Z,2.42
2023-09-13T19:43:24.125Z,4.75
2023-09-13T19:45:51.285Z,2.30
2023-09-13T19:48:17.980Z,3.20
2023-09-13T19:50:53.701Z,2.28
2023-09-13T19:53:21.138Z,2.45
2023-09-13T19:55:47.656Z,2.28
2023-09-13T19:58:14.626Z,2.38
2023-09-13T20:00:43.341Z,3.40
2023-09-13T20:03:09.911Z,3.33
2023-09-13T20:05:36.773Z,2.22
2023-09-13T20:08:04.742Z,3.63
2023-09-13T20:10:31.244Z,1.70
2023-09-13T20:12:57.751Z,3.00
2023-09-13T20:15:26.718Z,3.17
2023-09-13T20:17:53.616Z,2.42
2023-09-13T20:20:20.392Z,3.28
2023-09-13T20:22:46.867Z,3.03
2023-09-13T20:25:15.710Z,3.10
2023-09-13T20:27:42.484Z,6.38
2023-09-13T20:30:10.231Z,3.20
2023-09-13T20:32:36.724Z,3.67
2023-09-13T20:35:06.595Z,2.97
2023-09-13T20:37:33.089Z,2.63
2023-09-13T20:40:01.333Z,2.00
2023-09-13T20:42:28.581Z,2.35
2023-09-13T20:44:55.198Z,2.17
2023-09-13T20:47:23.059Z,1.92
2023-09-13T20:49:49.547Z,1.60
2023-09-13T20:52:16.019Z,3.65
2023-09-13T20:54:42.537Z,3.67
2023-09-13T20:57:09.016Z,3.53
2023-09-13T20:59:36.377Z,3.85
2023-09-13T21:02:04.796Z,1.88
2023-09-13T21:04:33.228Z,2.28
2023-09-13T21:07:00.028Z,1.85
2023-09-13T21:09:29.477Z,1.95
2023-09-13T21:11:56.075Z,2.40
2023-09-13T21:14:22.690Z,3.25
2023-09-13T21:16:49.226Z,2.80
2023-09-13T21:19:15.863Z,3.88
2023-09-13T21:21:42.438Z,3.17
2023-09-13T21:24:09.058Z,2.35
2023-09-13T21:26:36.474Z,3.03
2023-09-13T21:29:02.997Z,1.60
2023-09-13T21:31:29.509Z,2.63
2023-09-13T21:33:56.052Z,1.83
2023-09-13T21:36:23.838Z,2.35
2023-09-13T21:38:50.944Z,2.97
2023-09-13T21:41:17.450Z,2.15
2023-09-13T21:43:43.964Z,2.53
2023-09-13T21:46:10.573Z,2.10
2023-09-13T21:48:41.846Z,1.70
2023-09-13T21:51:09.663Z,3.67
2023-09-13T21:53:36.620Z,4.20
2023-09-13T21:56:04.120Z,2.28
2023-09-13T21:58:31.239Z,3.05
2023-09-13T22:00:59.520Z,1.20
2023-09-13T22:03:32.698Z,2.45
2023-09-13T22:06:02.203Z,2.17
2023-09-13T22:08:28.702Z,3.83
2023-09-13T22:11:09.934Z,1.95
2023-09-13T22:13:37.571Z,2.80
2023-09-13T22:16:06.579Z,2.15
2023-09-13T22:18:33.259Z,3.20
2023-09-13T22:21:02.114Z,2.05
2023-09-13T22:23:31.798Z,3.17
2023-09-13T22:25:59.066Z,3.78
2023-09-13T22:28:27.041Z,1.95
2023-09-13T22:31:00.734Z,2.10
2023-09-13T22:33:29.618Z,1.80
2023-09-13T22:35:57.065Z,2.33
2023-09-13T22:38:25.533Z,2.95
2023-09-13T22:40:52.837Z,2.58
2023-09-13T22:43:19.324Z,2.47
2023-09-13T22:45:45.803Z,2.35
2023-09-13T22:48:12.411Z,1.70
2023-09-13T22:50:39.122Z,1.95
2023-09-13T22:53:05.833Z,2.22
2023-09-13T22:55:32.674Z,2.72
2023-09-13T22:57:59.558Z,2.47
2023-09-13T23:00:26.211Z,1.95
2023-09-13T23:02:53.016Z,2.30
2023-09-13T23:05:21.262Z,2.28
2023-09-13T23:07:54.669Z,2.15
2023-09-13T23:10:21.978Z,3.13
2023-09-13T23:12:48.489Z,1.73
2023-09-13T23:15:15.613Z,2.40
2023-09-13T23:17:42.106Z,2.00
2023-09-13T23:20:11.548Z,2.28
2023-09-13T23:22:38.023Z,2.47
2023-09-13T23:25:05.485Z,2.60
2023-09-13T23:27:32.069Z,2.70
2023-09-13T23:29:58.561Z,2.22
2023-09-13T23:32:26.142Z,2.88
2023-09-13T23:34:52.625Z,2.70
2023-09-13T23:37:20.729Z,2.58
2023-09-13T23:39:47.141Z,1.80
2023-09-13T23:42:13.561Z,2.97
2023-09-13T23:44:39.995Z,2.00
2023-09-13T23:47:06.711Z,1.92
2023-09-13T23:49:35.485Z,3.10
2023-09-13T23:52:01.963Z,3.42
2023-09-13T23:54:28.564Z,2.85
2023-09-13T23:56:54.960Z,2.17
2023-09-13T23:59:22.136Z,2.55
